createdAt,value
2018-07-06T00:00:50.120Z,22.25
2018-07-06T00:01:50.298Z,22.36
2018-07-06T00:02:50.484Z,22.28
2018-07-06T00:03:50.664Z,22.25
2018-07-06T00:04:50.851Z,22.35
2018-07-06T00:05:51.041Z,22.26
2018-07-06T00:06:51.222Z,22.26
2018-07-06T00:07:51.390Z,22.32
2018-07-06T00:08:51.584Z,22.23
2018-07-06T00:09:51.756Z,22.23
2018-07-06T00:11:52.132Z,22.10
2018-07-06T00:12:52.315Z,22.08
2018-07-06T00:13:52.498Z,22.11
2018-07-06T00:14:52.689Z,22.23
2018-07-06T00:15:52.878Z,22.33
2018-07-06T00:16:53.047Z,22.20
2018-07-06T00:17:53.234Z,22.13
2018-07-06T00:18:53.411Z,22.10
2018-07-06T00:19:53.600Z,21.96
2018-07-06T00:20:53.817Z,21.98
2018-07-06T00:21:53.971Z,21.77
2018-07-06T00:22:54.139Z,21.77
2018-07-06T00:23:54.321Z,21.83
2018-07-06T00:24:54.507Z,22.00
2018-07-06T00:25:54.690Z,21.96
2018-07-06T00:26:54.866Z,21.99
2018-07-06T00:27:55.049Z,21.96
2018-07-06T00:28:55.226Z,21.95
2018-07-06T00:29:55.417Z,21.95
2018-07-06T00:30:55.596Z,21.92
2018-07-06T00:31:55.784Z,21.88
2018-07-06T00:32:55.959Z,21.83
2018-07-06T00:33:56.140Z,21.91
2018-07-06T00:34:56.607Z,21.83
2018-07-06T00:35:56.508Z,21.79
2018-07-06T00:36:56.694Z,21.91
2018-07-06T00:37:56.887Z,21.77
2018-07-06T00:38:57.077Z,21.96
2018-07-06T00:39:57.283Z,21.88
2018-07-06T00:40:57.450Z,21.89
2018-07-06T00:41:57.910Z,21.92
2018-07-06T00:42:57.817Z,21.95
2018-07-06T00:43:57.996Z,21.91
2018-07-06T00:45:58.365Z,21.88
2018-07-06T00:46:58.553Z,21.91
2018-07-06T00:47:58.730Z,21.82
2018-07-06T00:48:58.906Z,21.77
2018-07-06T00:49:59.083Z,21.96
2018-07-06T00:50:59.272Z,22.02
2018-07-06T00:51:59.477Z,21.98
2018-07-06T00:52:59.655Z,22.00
2018-07-06T00:53:59.839Z,21.76
2018-07-06T00:55:00.021Z,21.82
2018-07-06T00:56:00.202Z,21.77
2018-07-06T00:57:00.375Z,21.75
2018-07-06T00:58:00.570Z,21.83
2018-07-06T00:59:00.745Z,21.77
2018-07-06T01:00:00.927Z,21.76
2018-07-06T01:01:01.115Z,21.70
2018-07-06T01:02:01.299Z,21.76
2018-07-06T01:03:01.489Z,21.82
2018-07-06T01:04:01.673Z,21.82
2018-07-06T01:05:01.851Z,21.76
2018-07-06T01:06:02.046Z,21.80
2018-07-06T01:07:02.235Z,21.73
2018-07-06T01:08:02.428Z,21.76
2018-07-06T01:09:02.598Z,21.72
2018-07-06T01:10:02.816Z,21.55
2018-07-06T01:11:02.982Z,21.58
2018-07-06T01:12:03.156Z,21.55
2018-07-06T01:13:03.344Z,21.60
2018-07-06T01:14:03.526Z,21.48
2018-07-06T01:15:03.721Z,21.52
2018-07-06T01:17:04.088Z,21.51
2018-07-06T01:18:04.265Z,21.51
2018-07-06T01:19:04.429Z,21.43
2018-07-06T01:20:04.617Z,21.52
2018-07-06T01:21:04.810Z,21.50
2018-07-06T01:22:04.986Z,21.57
2018-07-06T01:23:05.215Z,21.55
2018-07-06T01:24:05.366Z,21.54
2018-07-06T01:25:05.543Z,21.46
2018-07-06T01:26:05.723Z,21.45
2018-07-06T01:27:05.907Z,21.46
2018-07-06T01:28:06.081Z,21.36
2018-07-06T01:29:06.265Z,21.27
2018-07-06T01:30:06.448Z,21.24
2018-07-06T01:31:06.632Z,21.30
2018-07-06T01:32:06.813Z,21.29
2018-07-06T01:33:06.991Z,21.22
2018-07-06T01:34:07.178Z,21.30
2018-07-06T01:35:07.375Z,21.20
2018-07-06T01:36:07.541Z,21.12
2018-07-06T01:37:07.725Z,21.15
2018-07-06T01:38:07.908Z,21.17
2018-07-06T01:39:08.095Z,21.12
2018-07-06T01:40:08.275Z,21.09
2018-07-06T01:41:08.464Z,21.09
2018-07-06T01:42:08.649Z,21.06
2018-07-06T01:43:08.827Z,21.09
2018-07-06T01:44:09.011Z,20.97
2018-07-06T01:45:09.197Z,21.00
2018-07-06T01:46:09.386Z,21.06
2018-07-06T01:47:09.856Z,20.97
2018-07-06T01:48:09.742Z,20.81
2018-07-06T01:49:09.931Z,20.82
2018-07-06T01:50:10.111Z,20.77
2018-07-06T01:51:10.302Z,20.70
2018-07-06T01:52:10.491Z,20.66
2018-07-06T01:53:10.667Z,20.62
2018-07-06T01:54:10.848Z,20.55
2018-07-06T01:55:11.036Z,20.63
2018-07-06T01:56:11.212Z,20.59
2018-07-06T01:57:11.400Z,20.52
2018-07-06T01:58:11.584Z,20.51
2018-07-06T01:59:11.768Z,20.55
2018-07-06T02:00:11.952Z,20.58
2018-07-06T02:01:12.132Z,20.56
2018-07-06T02:02:12.317Z,20.59
2018-07-06T02:03:12.500Z,20.56
2018-07-06T02:04:12.679Z,20.60
2018-07-06T02:05:12.862Z,20.70
2018-07-06T02:06:13.047Z,20.60
2018-07-06T02:07:13.239Z,20.65
2018-07-06T02:08:13.419Z,20.58
2018-07-06T02:09:13.605Z,20.48
2018-07-06T02:10:13.788Z,20.51
2018-07-06T02:11:13.966Z,20.48
2018-07-06T02:12:14.160Z,20.32
2018-07-06T02:13:14.343Z,20.28
2018-07-06T02:14:14.527Z,20.24
2018-07-06T02:15:14.711Z,20.25
2018-07-06T02:16:14.910Z,20.24
2018-07-06T02:17:15.081Z,20.28
2018-07-06T02:18:15.267Z,20.25
2018-07-06T02:19:15.446Z,20.25
2018-07-06T02:20:15.631Z,20.25
2018-07-06T02:21:15.814Z,20.18
2018-07-06T02:22:15.998Z,20.18
2018-07-06T02:23:16.182Z,20.14
2018-07-06T02:24:16.362Z,20.11
2018-07-06T02:25:16.551Z,20.02
2018-07-06T02:26:16.734Z,20.07
2018-07-06T02:27:16.922Z,20.07
2018-07-06T02:28:17.121Z,20.06
2018-07-06T02:29:17.284Z,20.03
2018-07-06T02:30:17.463Z,20.07
2018-07-06T02:31:17.648Z,20.09
2018-07-06T02:32:17.832Z,20.02
2018-07-06T02:33:18.016Z,20.03
2018-07-06T02:34:18.199Z,19.99
2018-07-06T02:35:18.382Z,19.89
2018-07-06T02:36:18.558Z,19.94
2018-07-06T02:37:18.741Z,19.82
2018-07-06T02:38:18.934Z,19.70
2018-07-06T02:39:19.117Z,19.71
2018-07-06T02:40:19.304Z,19.64
2018-07-06T02:41:19.482Z,19.71
2018-07-06T02:42:19.900Z,19.77
2018-07-06T02:43:19.851Z,19.64
2018-07-06T02:44:20.027Z,19.71
2018-07-06T02:45:20.212Z,19.69
2018-07-06T02:46:20.395Z,19.77
2018-07-06T02:47:20.576Z,19.67
2018-07-06T02:48:20.755Z,19.52
2018-07-06T02:49:20.936Z,19.49
2018-07-06T02:50:21.125Z,19.54
2018-07-06T02:51:21.301Z,19.58
2018-07-06T02:52:21.488Z,19.59
2018-07-06T02:53:21.673Z,19.51
2018-07-06T02:54:21.859Z,19.52
2018-07-06T02:55:22.036Z,19.48
2018-07-06T02:56:22.212Z,19.48
2018-07-06T02:57:22.428Z,19.47
2018-07-06T02:58:22.604Z,19.45
2018-07-06T02:59:22.783Z,19.39
2018-07-06T03:00:22.979Z,19.19
2018-07-06T03:01:23.168Z,19.15
2018-07-06T03:02:23.328Z,19.12
2018-07-06T03:03:23.524Z,19.02
2018-07-06T03:04:23.701Z,18.95
2018-07-06T03:05:23.886Z,19.02
2018-07-06T03:06:24.309Z,18.90
2018-07-06T03:07:24.253Z,18.99
2018-07-06T03:08:24.432Z,18.95
2018-07-06T03:09:24.618Z,18.98
2018-07-06T03:10:24.792Z,19.00
2018-07-06T03:11:24.968Z,18.89
2018-07-06T03:12:25.173Z,19.00
2018-07-06T03:13:25.339Z,19.07
2018-07-06T03:14:25.526Z,19.02
2018-07-06T03:15:25.705Z,19.04
2018-07-06T03:16:25.894Z,19.09
2018-07-06T03:17:26.079Z,18.99
2018-07-06T03:18:26.260Z,18.92
2018-07-06T03:19:26.454Z,18.92
2018-07-06T03:20:26.625Z,18.92
2018-07-06T03:21:26.809Z,18.93
2018-07-06T03:22:27.001Z,18.90
2018-07-06T03:23:27.184Z,18.89
2018-07-06T03:24:27.353Z,19.00
2018-07-06T03:25:27.535Z,18.89
2018-07-06T03:26:27.719Z,19.00
2018-07-06T03:27:27.900Z,18.95
2018-07-06T03:28:28.385Z,18.95
2018-07-06T03:29:28.264Z,18.92
2018-07-06T03:30:28.459Z,18.88
2018-07-06T03:31:28.640Z,18.71
2018-07-06T03:32:28.826Z,18.83
2018-07-06T03:33:29.000Z,18.77
2018-07-06T03:34:29.172Z,18.90
2018-07-06T03:35:29.357Z,18.84
2018-07-06T03:36:29.536Z,18.90
2018-07-06T03:37:29.719Z,18.83
2018-07-06T03:38:29.907Z,18.93
2018-07-06T03:39:30.090Z,18.95
2018-07-06T03:40:30.283Z,18.96
2018-07-06T03:41:30.461Z,18.92
2018-07-06T03:42:30.645Z,18.99
2018-07-06T03:43:30.829Z,19.02
2018-07-06T03:44:31.017Z,19.07
2018-07-06T03:45:31.185Z,18.95
2018-07-06T03:46:31.345Z,19.09
2018-07-06T03:47:31.529Z,19.09
2018-07-06T03:48:31.710Z,19.08
2018-07-06T03:49:31.892Z,19.04
2018-07-06T03:50:32.109Z,18.92
2018-07-06T03:51:32.252Z,18.98
2018-07-06T03:52:32.439Z,18.92
2018-07-06T03:53:32.617Z,18.95
2018-07-06T03:54:32.798Z,18.93
2018-07-06T03:55:32.983Z,18.83
2018-07-06T03:56:33.166Z,18.65
2018-07-06T03:57:33.355Z,18.73
2018-07-06T03:58:33.531Z,18.62
2018-07-06T03:59:33.716Z,18.52
2018-07-06T04:00:33.896Z,18.49
2018-07-06T04:01:34.077Z,18.44
2018-07-06T04:02:34.258Z,18.55
2018-07-06T04:03:34.445Z,18.47
2018-07-06T04:04:34.625Z,18.62
2018-07-06T04:05:34.805Z,18.62
2018-07-06T04:06:35.000Z,18.65
2018-07-06T04:07:35.174Z,18.56
2018-07-06T04:08:35.358Z,18.66
2018-07-06T04:09:35.530Z,18.53
2018-07-06T04:10:35.720Z,18.53
2018-07-06T04:11:35.902Z,18.60
2018-07-06T04:12:36.085Z,18.59
2018-07-06T04:13:36.266Z,18.60
2018-07-06T04:14:36.453Z,18.62
2018-07-06T04:15:36.631Z,18.62
2018-07-06T04:16:36.815Z,18.60
2018-07-06T04:17:36.999Z,18.65
2018-07-06T04:18:37.191Z,18.55
2018-07-06T04:19:37.362Z,18.86
2018-07-06T04:20:37.545Z,18.88
2018-07-06T04:21:37.742Z,19.02
2018-07-06T04:22:37.909Z,19.52
2018-07-06T04:23:38.092Z,20.13
2018-07-06T04:24:38.296Z,20.77
2018-07-06T04:25:38.460Z,21.24
2018-07-06T04:26:38.639Z,21.70
2018-07-06T04:27:38.823Z,22.26
2018-07-06T04:28:39.017Z,22.50
2018-07-06T04:29:39.195Z,22.54
2018-07-06T04:30:39.379Z,22.62
2018-07-06T04:31:39.562Z,22.75
2018-07-06T04:32:39.747Z,22.98
2018-07-06T04:33:39.986Z,23.18
2018-07-06T04:34:40.112Z,23.44
2018-07-06T04:35:40.300Z,23.95
2018-07-06T04:36:40.487Z,24.14
2018-07-06T04:37:40.666Z,24.45
2018-07-06T04:38:40.848Z,24.55
2018-07-06T04:39:41.036Z,24.65
2018-07-06T04:40:41.225Z,24.78
2018-07-06T04:41:41.413Z,25.11
2018-07-06T04:42:41.600Z,25.11
2018-07-06T04:43:41.788Z,24.57
2018-07-06T04:44:41.969Z,24.33
2018-07-06T04:45:42.171Z,24.24
2018-07-06T04:46:42.365Z,24.51
2018-07-06T04:47:42.540Z,24.85
2018-07-06T04:48:42.728Z,24.68
2018-07-06T04:49:42.906Z,24.35
2018-07-06T04:50:43.112Z,24.16
2018-07-06T04:51:43.295Z,23.54
2018-07-06T04:52:43.473Z,23.23
2018-07-06T04:53:43.653Z,23.37
2018-07-06T04:54:43.838Z,23.66
2018-07-06T04:55:44.030Z,24.26
2018-07-06T04:56:44.215Z,24.43
2018-07-06T04:57:44.393Z,24.36
2018-07-06T04:58:44.572Z,24.40
2018-07-06T04:59:44.754Z,24.02
2018-07-06T05:00:44.943Z,24.28
2018-07-06T05:01:45.143Z,23.77
2018-07-06T05:02:45.335Z,23.73
2018-07-06T05:03:45.515Z,24.16
2018-07-06T05:04:45.719Z,24.32
2018-07-06T05:05:45.893Z,23.62
2018-07-06T05:06:46.343Z,22.88
2018-07-06T05:07:46.389Z,22.70
2018-07-06T05:08:46.491Z,22.75
2018-07-06T05:09:46.675Z,22.23
2018-07-06T05:10:46.851Z,21.80
2018-07-06T05:11:47.063Z,21.51
2018-07-06T05:12:47.266Z,21.43
2018-07-06T05:13:47.459Z,21.11
2018-07-06T05:14:47.645Z,21.09
2018-07-06T05:15:47.845Z,21.27
2018-07-06T05:16:48.086Z,21.40
2018-07-06T05:17:48.195Z,21.58
2018-07-06T05:18:48.384Z,21.05
2018-07-06T05:19:48.557Z,20.97
2018-07-06T05:20:48.762Z,21.06
2018-07-06T05:21:48.948Z,21.22
2018-07-06T05:22:49.133Z,21.36
2018-07-06T05:23:49.333Z,21.52
2018-07-06T05:24:49.509Z,21.50
2018-07-06T05:25:49.720Z,21.43
2018-07-06T05:26:49.912Z,21.54
2018-07-06T05:27:50.103Z,21.61
2018-07-06T05:28:50.289Z,21.91
2018-07-06T05:29:50.491Z,22.07
2018-07-06T05:30:50.657Z,22.44
2018-07-06T05:31:50.849Z,22.30
2018-07-06T05:32:51.034Z,22.07
2018-07-06T05:33:51.221Z,21.92
2018-07-06T05:34:51.407Z,22.08
2018-07-06T05:35:51.598Z,21.75
2018-07-06T05:36:51.783Z,21.69
2018-07-06T05:37:52.042Z,22.00
2018-07-06T05:38:52.163Z,22.07
2018-07-06T05:39:52.348Z,22.65
2018-07-06T05:40:52.533Z,23.39
2018-07-06T05:41:52.717Z,23.81
2018-07-06T05:42:52.919Z,23.20
2018-07-06T05:43:53.282Z,23.66
2018-07-06T05:44:53.270Z,23.98
2018-07-06T05:45:53.450Z,23.87
2018-07-06T05:46:54.405Z,23.21
2018-07-06T05:47:53.812Z,23.18
2018-07-06T05:48:54.004Z,22.94
2018-07-06T05:49:54.183Z,23.09
2018-07-06T05:50:54.366Z,22.76
2018-07-06T05:51:54.546Z,23.06
2018-07-06T05:52:54.754Z,23.91
2018-07-06T05:53:54.915Z,24.57
2018-07-06T05:54:55.096Z,24.38
2018-07-06T05:55:55.282Z,24.69
2018-07-06T05:56:55.467Z,24.63
2018-07-06T05:57:55.665Z,24.65
2018-07-06T05:58:56.100Z,25.18
2018-07-06T05:59:56.033Z,25.22
2018-07-06T06:00:56.214Z,25.25
2018-07-06T06:01:56.393Z,25.80
2018-07-06T06:02:56.580Z,26.22
2018-07-06T06:03:56.774Z,25.98
2018-07-06T06:04:56.958Z,26.37
2018-07-06T06:05:57.159Z,26.41
2018-07-06T06:06:57.347Z,26.68
2018-07-06T06:07:57.536Z,26.65
2018-07-06T06:08:57.721Z,26.80
2018-07-06T06:09:57.917Z,26.83
2018-07-06T06:10:58.110Z,26.77
2018-07-06T06:11:58.300Z,27.26
2018-07-06T06:12:58.496Z,27.25
2018-07-06T06:13:58.699Z,27.65
2018-07-06T06:14:58.866Z,28.22
2018-07-06T06:15:59.069Z,27.93
2018-07-06T06:16:59.262Z,27.92
2018-07-06T06:17:59.454Z,27.75
2018-07-06T06:18:59.635Z,27.52
2018-07-06T06:19:59.835Z,26.18
2018-07-06T06:21:00.014Z,25.77
2018-07-06T06:22:00.200Z,26.05
2018-07-06T06:23:00.379Z,25.90
2018-07-06T06:24:00.574Z,25.55
2018-07-06T06:25:00.765Z,25.81
2018-07-06T06:26:00.956Z,25.23
2018-07-06T06:27:01.138Z,24.48
2018-07-06T06:28:01.350Z,23.95
2018-07-06T06:29:01.489Z,23.39
2018-07-06T06:30:01.680Z,23.23
2018-07-06T06:31:01.866Z,23.36
2018-07-06T06:32:02.046Z,23.43
2018-07-06T06:33:02.293Z,23.21
2018-07-06T06:34:02.436Z,23.12
2018-07-06T06:35:02.611Z,23.10
2018-07-06T06:36:02.801Z,23.73
2018-07-06T06:37:02.999Z,24.14
2018-07-06T06:38:03.201Z,24.16
2018-07-06T06:39:03.388Z,24.26
2018-07-06T06:40:03.571Z,24.96
2018-07-06T06:41:03.758Z,25.78
2018-07-06T06:42:03.943Z,25.32
2018-07-06T06:43:04.117Z,25.50
2018-07-06T06:44:04.305Z,26.03
2018-07-06T06:45:04.490Z,26.45
2018-07-06T06:46:04.685Z,25.84
2018-07-06T06:47:04.895Z,26.33
2018-07-06T06:48:05.077Z,26.99
2018-07-06T06:49:05.238Z,27.33
2018-07-06T06:50:05.448Z,27.33
2018-07-06T06:51:05.616Z,27.71
2018-07-06T06:52:05.802Z,28.19
2018-07-06T06:53:06.042Z,28.59
2018-07-06T06:54:06.177Z,29.23
2018-07-06T06:55:06.472Z,29.34
2018-07-06T06:56:06.622Z,29.84
2018-07-06T06:57:06.795Z,29.38
2018-07-06T06:58:07.008Z,29.20
2018-07-06T06:59:07.213Z,28.86
2018-07-06T07:00:07.356Z,28.49
2018-07-06T07:01:07.604Z,28.47
2018-07-06T07:02:07.774Z,28.51
2018-07-06T07:03:07.913Z,28.48
2018-07-06T07:04:08.142Z,27.78
2018-07-06T07:05:08.268Z,27.64
2018-07-06T07:06:08.455Z,28.33
2018-07-06T07:07:08.614Z,28.79
2018-07-06T07:08:08.808Z,28.25
2018-07-06T07:09:08.976Z,27.90
2018-07-06T07:10:09.142Z,27.83
2018-07-06T07:11:09.320Z,28.23
2018-07-06T07:12:09.490Z,29.02
2018-07-06T07:13:09.673Z,28.32
2018-07-06T07:14:09.889Z,27.36
2018-07-06T07:15:10.092Z,27.25
2018-07-06T07:16:10.248Z,27.17
2018-07-06T07:17:10.431Z,26.43
2018-07-06T07:18:10.601Z,26.65
2018-07-06T07:19:10.786Z,26.41
2018-07-06T07:20:10.958Z,26.18
2018-07-06T07:21:11.139Z,25.84
2018-07-06T07:22:11.354Z,26.03
2018-07-06T07:23:11.545Z,26.07
2018-07-06T07:24:11.796Z,26.03
2018-07-06T07:25:11.924Z,25.85
2018-07-06T07:26:12.129Z,25.99
2018-07-06T07:27:12.282Z,26.22
2018-07-06T07:28:12.454Z,26.70
2018-07-06T07:29:12.653Z,26.80
2018-07-06T07:30:12.921Z,26.55
2018-07-06T07:31:12.991Z,26.47
2018-07-06T07:32:13.178Z,26.88
2018-07-06T07:33:13.405Z,27.40
2018-07-06T07:34:13.503Z,26.84
2018-07-06T07:35:13.700Z,26.89
2018-07-06T07:36:13.893Z,26.77
2018-07-06T07:37:14.113Z,26.28
2018-07-06T07:38:14.252Z,26.36
2018-07-06T07:39:14.429Z,25.98
2018-07-06T07:40:14.633Z,25.81
2018-07-06T07:41:14.814Z,25.10
2018-07-06T07:42:15.007Z,24.96
2018-07-06T07:43:15.177Z,24.78
2018-07-06T07:44:15.327Z,24.99
2018-07-06T07:45:15.526Z,24.65
2018-07-06T07:46:15.709Z,24.77
2018-07-06T07:47:15.909Z,24.55
2018-07-06T07:48:16.061Z,24.65
2018-07-06T07:49:16.221Z,24.50
2018-07-06T07:50:16.400Z,24.45
2018-07-06T07:51:16.585Z,24.53
2018-07-06T07:52:16.752Z,24.54
2018-07-06T07:53:16.939Z,24.86
2018-07-06T07:54:17.123Z,25.26
2018-07-06T07:55:17.274Z,26.13
2018-07-06T07:56:17.448Z,26.90
2018-07-06T07:57:17.652Z,27.60
2018-07-06T07:58:17.805Z,27.87
2018-07-06T07:59:17.986Z,28.26
2018-07-06T08:00:18.204Z,28.42
2018-07-06T08:01:18.556Z,28.25
2018-07-06T08:02:18.546Z,27.25
2018-07-06T08:03:18.715Z,27.63
2018-07-06T08:04:18.891Z,28.02
2018-07-06T08:05:19.071Z,28.51
2018-07-06T08:06:19.237Z,28.05
2018-07-06T08:07:19.438Z,27.42
2018-07-06T08:08:19.664Z,27.02
2018-07-06T08:09:19.853Z,26.88
2018-07-06T08:10:20.092Z,27.17
2018-07-06T08:11:20.217Z,27.44
2018-07-06T08:12:20.425Z,26.78
2018-07-06T08:13:20.582Z,26.96
2018-07-06T08:14:20.787Z,26.90
2018-07-06T08:15:20.941Z,27.29
2018-07-06T08:16:21.138Z,27.60
2018-07-06T08:17:21.379Z,27.90
2018-07-06T08:18:21.625Z,28.11
2018-07-06T08:19:21.768Z,28.39
2018-07-06T08:20:21.967Z,28.12
2018-07-06T08:21:22.152Z,27.98
2018-07-06T08:22:22.323Z,27.89
2018-07-06T08:23:22.541Z,27.59
2018-07-06T08:24:22.726Z,27.80
2018-07-06T08:25:22.925Z,27.82
2018-07-06T08:26:23.093Z,28.00
2018-07-06T08:27:23.276Z,27.73
2018-07-06T08:28:23.471Z,27.73
2018-07-06T08:29:23.651Z,27.15
2018-07-06T08:30:23.866Z,27.17
2018-07-06T08:31:24.012Z,27.37
2018-07-06T08:32:24.208Z,27.75
2018-07-06T08:33:24.401Z,27.83
2018-07-06T08:34:24.567Z,27.80
2018-07-06T08:35:24.781Z,27.96
2018-07-06T08:36:24.938Z,28.04
2018-07-06T08:37:25.151Z,28.26
2018-07-06T08:38:25.302Z,28.52
2018-07-06T08:39:25.480Z,28.79
2018-07-06T08:40:25.664Z,28.93
2018-07-06T08:41:25.847Z,28.78
2018-07-06T08:42:26.028Z,28.62
2018-07-06T08:43:26.233Z,28.15
2018-07-06T08:44:26.412Z,28.14
2018-07-06T08:45:26.585Z,27.83
2018-07-06T08:46:26.775Z,27.87
2018-07-06T08:47:26.951Z,28.17
2018-07-06T08:48:27.152Z,28.52
2018-07-06T08:49:27.316Z,28.52
2018-07-06T08:50:27.500Z,28.38
2018-07-06T08:51:27.678Z,28.32
2018-07-06T08:52:27.876Z,27.89
2018-07-06T08:53:28.048Z,28.15
2018-07-06T08:54:28.233Z,28.42
2018-07-06T08:55:28.413Z,28.33
2018-07-06T08:56:28.603Z,28.23
2018-07-06T08:57:28.796Z,28.14
2018-07-06T08:58:29.226Z,28.23
2018-07-06T08:59:29.161Z,28.59
2018-07-06T09:00:29.344Z,28.00
2018-07-06T09:01:29.527Z,28.02
2018-07-06T09:02:29.718Z,27.83
2018-07-06T09:03:29.914Z,27.78
2018-07-06T09:04:30.132Z,28.35
2018-07-06T09:05:30.281Z,27.70
2018-07-06T09:06:30.457Z,27.70
2018-07-06T09:07:30.706Z,27.70
2018-07-06T09:08:30.834Z,27.15
2018-07-06T09:09:31.045Z,27.55
2018-07-06T09:10:31.253Z,28.12
2018-07-06T09:11:31.386Z,28.15
2018-07-06T09:12:31.584Z,28.22
2018-07-06T09:13:31.812Z,27.59
2018-07-06T09:14:32.040Z,27.73
2018-07-06T09:15:32.253Z,27.93
2018-07-06T09:16:32.394Z,28.05
2018-07-06T09:17:32.567Z,28.49
2018-07-06T09:18:32.759Z,28.63
2018-07-06T09:19:33.111Z,28.49
2018-07-06T09:20:33.235Z,28.47
2018-07-06T09:21:33.530Z,28.82
2018-07-06T09:22:33.598Z,29.05
2018-07-06T09:23:33.698Z,28.85
2018-07-06T09:24:33.986Z,28.91
2018-07-06T09:25:34.067Z,28.96
2018-07-06T09:26:34.240Z,28.94
2018-07-06T09:27:34.438Z,29.12
2018-07-06T09:28:34.587Z,29.17
2018-07-06T09:29:34.774Z,29.02
2018-07-06T09:30:34.962Z,28.97
2018-07-06T09:31:35.144Z,28.89
2018-07-06T09:32:35.317Z,28.74
2018-07-06T09:33:35.490Z,28.74
2018-07-06T09:34:35.691Z,28.91
2018-07-06T09:35:35.855Z,28.88
2018-07-06T09:36:36.043Z,29.14
2018-07-06T09:37:36.205Z,29.35
2018-07-06T09:38:36.413Z,29.29
2018-07-06T09:39:36.602Z,28.39
2018-07-06T09:40:36.807Z,27.89
2018-07-06T09:41:36.995Z,27.75
2018-07-06T09:42:37.178Z,28.00
2018-07-06T09:43:37.375Z,28.15
2018-07-06T09:44:37.558Z,27.82
2018-07-06T09:45:37.742Z,28.02
2018-07-06T09:46:37.931Z,27.80
2018-07-06T09:47:38.112Z,27.45
2018-07-06T09:48:38.304Z,27.21
2018-07-06T09:49:38.493Z,27.54
2018-07-06T09:50:38.685Z,27.54
2018-07-06T09:51:38.864Z,27.71
2018-07-06T09:52:39.049Z,27.83
2018-07-06T09:53:39.251Z,27.95
2018-07-06T09:54:39.427Z,28.12
2018-07-06T09:55:39.615Z,28.02
2018-07-06T09:56:39.824Z,27.85
2018-07-06T09:57:39.991Z,27.83
2018-07-06T09:58:40.181Z,27.71
2018-07-06T09:59:40.346Z,27.83
2018-07-06T10:00:40.533Z,27.59
2018-07-06T10:01:40.726Z,27.44
2018-07-06T10:02:40.927Z,27.70
2018-07-06T10:03:41.100Z,27.85
2018-07-06T10:04:41.281Z,27.73
2018-07-06T10:05:41.507Z,27.93
2018-07-06T10:06:41.668Z,27.75
2018-07-06T10:07:41.827Z,27.64
2018-07-06T10:08:42.016Z,27.83
2018-07-06T10:09:42.207Z,27.74
2018-07-06T10:10:42.400Z,27.78
2018-07-06T10:11:42.581Z,27.33
2018-07-06T10:12:42.766Z,27.35
2018-07-06T10:13:42.960Z,27.30
2018-07-06T10:14:43.139Z,27.07
2018-07-06T10:15:43.336Z,27.07
2018-07-06T10:16:43.517Z,27.22
2018-07-06T10:17:43.709Z,27.27
2018-07-06T10:18:43.896Z,27.12
2018-07-06T10:19:44.101Z,26.95
2018-07-06T10:20:44.276Z,26.77
2018-07-06T10:21:44.460Z,26.63
2018-07-06T10:22:44.614Z,26.77
2018-07-06T10:23:44.843Z,26.77
2018-07-06T10:24:45.015Z,26.97
2018-07-06T10:25:45.223Z,27.36
2018-07-06T10:26:45.362Z,27.30
2018-07-06T10:27:45.537Z,27.55
2018-07-06T10:29:45.909Z,27.32
2018-07-06T10:30:46.100Z,27.36
2018-07-06T10:31:46.279Z,27.55
2018-07-06T10:32:46.463Z,27.48
2018-07-06T10:33:46.657Z,27.71
2018-07-06T10:34:46.808Z,27.48
2018-07-06T10:35:47.016Z,27.39
2018-07-06T10:36:47.188Z,27.20
2018-07-06T10:37:47.371Z,26.95
2018-07-06T10:38:47.569Z,27.08
2018-07-06T10:39:47.898Z,27.12
2018-07-06T10:40:47.940Z,27.26
2018-07-06T10:41:48.128Z,27.47
2018-07-06T10:42:48.317Z,26.92
2018-07-06T10:43:48.490Z,27.25
2018-07-06T10:44:48.674Z,26.96
2018-07-06T10:45:48.841Z,26.96
2018-07-06T10:46:49.023Z,26.97
2018-07-06T10:47:49.205Z,27.21
2018-07-06T10:48:49.382Z,27.52
2018-07-06T10:49:49.564Z,27.80
2018-07-06T10:50:49.757Z,27.82
2018-07-06T10:51:49.937Z,27.67
2018-07-06T10:52:50.397Z,27.26
2018-07-06T10:53:50.307Z,27.30
2018-07-06T10:54:50.491Z,26.96
2018-07-06T10:55:50.686Z,26.88
2018-07-06T10:56:50.862Z,26.65
2018-07-06T10:57:51.042Z,26.83
2018-07-06T10:58:51.221Z,26.89
2018-07-06T10:59:51.423Z,26.47
2018-07-06T11:00:51.606Z,26.55
2018-07-06T11:01:51.789Z,26.48
2018-07-06T11:02:51.976Z,26.62
2018-07-06T11:03:52.161Z,26.45
2018-07-06T11:04:52.413Z,26.51
2018-07-06T11:05:52.532Z,26.52
2018-07-06T11:06:52.841Z,26.51
2018-07-06T11:07:52.909Z,26.15
2018-07-06T11:08:53.102Z,26.16
2018-07-06T11:09:53.275Z,26.43
2018-07-06T11:10:53.453Z,26.41
2018-07-06T11:11:53.652Z,26.37
2018-07-06T11:12:53.842Z,26.05
2018-07-06T11:13:54.042Z,26.02
2018-07-06T11:14:54.210Z,26.22
2018-07-06T11:15:54.399Z,26.23
2018-07-06T11:16:54.570Z,26.47
2018-07-06T11:17:54.769Z,26.52
2018-07-06T11:18:54.950Z,26.65
2018-07-06T11:19:55.143Z,26.62
2018-07-06T11:20:55.333Z,26.44
2018-07-06T11:21:55.505Z,26.45
2018-07-06T11:22:55.743Z,26.62
2018-07-06T11:23:56.074Z,26.43
2018-07-06T11:24:56.004Z,26.55
2018-07-06T11:25:56.210Z,26.44
2018-07-06T11:26:56.396Z,26.65
2018-07-06T11:27:56.599Z,26.58
2018-07-06T11:28:56.783Z,26.68
2018-07-06T11:29:56.967Z,26.74
2018-07-06T11:30:57.138Z,26.85
2018-07-06T11:31:57.320Z,26.78
2018-07-06T11:32:57.497Z,26.85
2018-07-06T11:33:57.681Z,26.65
2018-07-06T11:34:57.884Z,26.90
2018-07-06T11:35:58.059Z,27.00
2018-07-06T11:36:58.247Z,26.80
2018-07-06T11:37:58.529Z,26.95
2018-07-06T11:38:58.627Z,27.14
2018-07-06T11:39:58.817Z,26.93
2018-07-06T11:40:58.992Z,26.84
2018-07-06T11:41:59.196Z,27.05
2018-07-06T11:42:59.385Z,27.21
2018-07-06T11:43:59.564Z,27.40
2018-07-06T11:44:59.827Z,27.39
2018-07-06T11:45:59.926Z,27.36
2018-07-06T11:47:00.104Z,27.11
2018-07-06T11:48:00.350Z,26.92
2018-07-06T11:49:00.473Z,27.25
2018-07-06T11:50:00.743Z,27.05
2018-07-06T11:51:00.830Z,26.97
2018-07-06T11:52:01.007Z,26.44
2018-07-06T11:53:01.181Z,25.96
2018-07-06T11:54:01.367Z,25.33
2018-07-06T11:55:01.541Z,25.36
2018-07-06T11:56:01.744Z,25.90
2018-07-06T11:57:01.893Z,26.47
2018-07-06T11:58:02.118Z,26.52
2018-07-06T11:59:02.270Z,26.52
2018-07-06T12:00:02.497Z,26.22
2018-07-06T12:01:02.649Z,26.18
2018-07-06T12:02:02.814Z,26.34
2018-07-06T12:03:02.991Z,26.47
2018-07-06T12:04:03.225Z,26.68
2018-07-06T12:05:03.579Z,26.58
2018-07-06T12:06:03.527Z,26.55
2018-07-06T12:07:03.711Z,26.52
2018-07-06T12:08:03.892Z,26.62
2018-07-06T12:09:04.080Z,26.77
2018-07-06T12:10:04.266Z,26.75
2018-07-06T12:11:04.446Z,26.19
2018-07-06T12:12:04.645Z,26.31
2018-07-06T12:13:04.798Z,26.43
2018-07-06T12:14:04.976Z,26.26
2018-07-06T12:15:05.156Z,26.51
2018-07-06T12:16:05.321Z,26.63
2018-07-06T12:17:05.532Z,26.59
2018-07-06T12:18:05.715Z,26.78
2018-07-06T12:19:05.907Z,26.71
2018-07-06T12:20:06.077Z,26.71
2018-07-06T12:21:06.357Z,26.77
2018-07-06T12:22:06.460Z,26.28
2018-07-06T12:23:06.640Z,26.41
2018-07-06T12:24:06.834Z,26.63
2018-07-06T12:25:07.015Z,26.78
2018-07-06T12:26:07.187Z,26.75
2018-07-06T12:27:07.377Z,26.75
2018-07-06T12:28:07.579Z,26.73
2018-07-06T12:29:07.841Z,26.60
2018-07-06T12:30:07.954Z,26.77
2018-07-06T12:31:08.133Z,26.84
2018-07-06T12:32:08.323Z,26.43
2018-07-06T12:33:08.496Z,26.44
2018-07-06T12:34:08.671Z,26.53
2018-07-06T12:35:08.853Z,26.65
2018-07-06T12:36:09.026Z,26.84
2018-07-06T12:37:09.214Z,26.80
2018-07-06T12:38:09.393Z,26.93
2018-07-06T12:39:09.573Z,26.99
2018-07-06T12:40:09.741Z,26.95
2018-07-06T12:41:09.935Z,26.89
2018-07-06T12:42:10.116Z,26.75
2018-07-06T12:43:10.297Z,26.70
2018-07-06T12:44:10.488Z,26.58
2018-07-06T12:45:10.688Z,26.52
2018-07-06T12:46:10.866Z,26.71
2018-07-06T12:47:11.085Z,26.81
2018-07-06T12:48:11.232Z,26.71
2018-07-06T12:49:11.425Z,26.71
2018-07-06T12:50:11.616Z,26.62
2018-07-06T12:51:11.811Z,26.51
2018-07-06T12:52:11.982Z,26.74
2018-07-06T12:53:12.175Z,26.81
2018-07-06T12:54:12.351Z,26.95
2018-07-06T12:55:12.538Z,26.74
2018-07-06T12:56:12.716Z,26.52
2018-07-06T12:57:12.876Z,26.52
2018-07-06T12:58:13.184Z,26.59
2018-07-06T12:59:13.288Z,26.56